createdAt,value
2023-05-07T00:00:44.938Z,14.95
2023-05-07T00:03:12.450Z,15.63
2023-05-07T00:05:39.111Z,15.77
2023-05-07T00:08:05.928Z,15.25
2023-05-07T00:10:32.543Z,15.00
2023-05-07T00:12:59.188Z,13.85
2023-05-07T00:15:25.821Z,13.30
2023-05-07T00:17:52.481Z,13.27
2023-05-07T00:20:19.069Z,13.00
2023-05-07T00:22:46.043Z,12.50
2023-05-07T00:25:12.671Z,12.63
2023-05-07T00:27:39.405Z,12.93
2023-05-07T00:30:07.156Z,12.00
2023-05-07T00:32:33.792Z,11.70
2023-05-07T00:35:00.479Z,11.38
2023-05-07T00:37:27.088Z,11.32
2023-05-07T00:39:53.777Z,11.52
2023-05-07T00:42:20.800Z,11.38
2023-05-07T00:44:47.395Z,10.90
2023-05-07T00:47:15.020Z,11.32
2023-05-07T00:49:46.153Z,10.70
2023-05-07T00:52:15.551Z,11.90
2023-05-07T00:54:42.475Z,10.95
2023-05-07T00:57:10.683Z,10.50
2023-05-07T00:59:37.283Z,11.45
2023-05-07T01:02:03.893Z,10.52
2023-05-07T01:04:30.701Z,10.77
2023-05-07T01:06:59.204Z,10.00
2023-05-07T01:09:26.771Z,10.02
2023-05-07T01:11:53.586Z,9.43
2023-05-07T01:14:21.429Z,10.55
2023-05-07T01:16:48.952Z,11.05
2023-05-07T01:19:19.458Z,10.35
2023-05-07T01:21:48.250Z,9.75
2023-05-07T01:24:17.041Z,10.65
2023-05-07T01:26:45.464Z,10.23
2023-05-07T01:29:14.635Z,11.45
2023-05-07T01:31:42.770Z,9.95
2023-05-07T01:34:11.533Z,10.88
2023-05-07T01:36:40.284Z,10.73
2023-05-07T01:39:07.670Z,11.98
2023-05-07T01:41:34.355Z,11.55
2023-05-07T01:44:01.378Z,11.10
2023-05-07T01:46:28.914Z,11.75
2023-05-07T01:48:55.868Z,11.57
2023-05-07T01:51:23.295Z,11.77
2023-05-07T01:53:51.722Z,12.70
2023-05-07T01:56:20.053Z,12.43
2023-05-07T01:58:47.822Z,11.30
2023-05-07T02:01:15.266Z,12.05
2023-05-07T02:03:43.535Z,12.00
2023-05-07T02:06:18.284Z,11.73
2023-05-07T02:08:45.000Z,11.57
2023-05-07T02:11:13.299Z,12.48
2023-05-07T02:13:40.001Z,12.18
2023-05-07T02:16:06.988Z,12.23
2023-05-07T02:18:34.282Z,12.05
2023-05-07T02:21:00.933Z,12.23
2023-05-07T02:23:27.565Z,11.35
2023-05-07T02:25:54.468Z,12.10
2023-05-07T02:28:21.161Z,12.23
2023-05-07T02:30:52.137Z,12.95
2023-05-07T02:33:19.794Z,13.18
2023-05-07T02:35:47.037Z,12.80
2023-05-07T02:38:15.751Z,12.20
2023-05-07T02:40:42.562Z,12.50
2023-05-07T02:43:09.389Z,13.60
2023-05-07T02:45:37.176Z,13.45
2023-05-07T02:48:06.755Z,12.93
2023-05-07T02:50:33.567Z,12.43
2023-05-07T02:53:00.510Z,12.30
2023-05-07T02:55:27.121Z,12.55
2023-05-07T02:57:53.832Z,13.25
2023-05-07T03:00:21.168Z,12.88
2023-05-07T03:02:55.820Z,12.77
2023-05-07T03:05:23.017Z,11.25
2023-05-07T03:07:49.726Z,10.77
2023-05-07T03:10:16.773Z,11.30
2023-05-07T03:12:43.558Z,11.52
2023-05-07T03:15:15.182Z,12.05
2023-05-07T03:17:42.013Z,11.48
2023-05-07T03:20:11.136Z,10.77
2023-05-07T03:22:38.391Z,10.55
2023-05-07T03:25:05.514Z,11.38
2023-05-07T03:27:32.111Z,10.88
2023-05-07T03:29:58.747Z,10.93
2023-05-07T03:32:25.746Z,10.93
2023-05-07T03:34:52.441Z,11.80
2023-05-07T03:37:19.558Z,10.88
2023-05-07T03:39:46.148Z,11.05
2023-05-07T03:42:12.980Z,11.48
2023-05-07T03:44:40.262Z,11.63
2023-05-07T03:47:06.967Z,11.70
2023-05-07T03:49:33.590Z,10.40
2023-05-07T03:52:00.519Z,10.57
2023-05-07T03:54:27.255Z,10.43
2023-05-07T03:56:53.959Z,10.68
2023-05-07T03:59:21.290Z,10.68
2023-05-07T04:01:49.766Z,11.52
2023-05-07T04:04:18.991Z,11.15
2023-05-07T04:06:45.826Z,10.98
2023-05-07T04:09:13.076Z,11.38
2023-05-07T04:11:41.256Z,11.52
2023-05-07T04:14:10.110Z,11.07
2023-05-07T04:16:37.739Z,11.52
2023-05-07T04:19:04.962Z,12.00
2023-05-07T04:21:32.349Z,12.35
2023-05-07T04:23:59.655Z,12.70
2023-05-07T04:26:26.338Z,12.85
2023-05-07T04:28:52.993Z,13.25
2023-05-07T04:31:19.725Z,13.10
2023-05-07T04:33:51.594Z,13.25
2023-05-07T04:36:18.907Z,12.30
2023-05-07T04:38:54.546Z,11.77
2023-05-07T04:41:21.699Z,10.80
2023-05-07T04:43:48.739Z,11.30
2023-05-07T04:46:17.238Z,10.95
2023-05-07T04:48:44.937Z,11.80
2023-05-07T04:51:11.828Z,11.43
2023-05-07T04:53:38.901Z,10.43
2023-05-07T04:56:05.569Z,11.02
2023-05-07T04:58:39.243Z,10.65
2023-05-07T05:01:06.095Z,10.95
2023-05-07T05:03:33.044Z,10.90
2023-05-07T05:06:00.780Z,11.07
2023-05-07T05:08:31.515Z,10.35
2023-05-07T05:10:58.258Z,10.50
2023-05-07T05:13:25.004Z,11.15
2023-05-07T05:15:51.778Z,9.20
2023-05-07T05:18:18.435Z,9.57
2023-05-07T05:20:45.942Z,8.90
2023-05-07T05:23:13.130Z,9.48
2023-05-07T05:25:41.196Z,9.73
2023-05-07T05:28:10.447Z,9.77
2023-05-07T05:30:37.361Z,10.93
2023-05-07T05:33:04.052Z,9.60
2023-05-07T05:35:31.561Z,10.75
2023-05-07T05:37:59.174Z,9.50
2023-05-07T05:40:25.779Z,9.70
2023-05-07T05:42:52.537Z,9.38
2023-05-07T05:45:19.532Z,8.98
2023-05-07T05:47:46.778Z,9.25
2023-05-07T05:50:13.900Z,8.88
2023-05-07T05:52:41.738Z,9.82
2023-05-07T05:55:09.526Z,9.48
2023-05-07T05:57:37.096Z,10.05
2023-05-07T06:00:06.355Z,10.38
2023-05-07T06:02:45.491Z,9.77
2023-05-07T06:05:15.950Z,10.23
2023-05-07T06:07:43.925Z,10.52
2023-05-07T06:10:11.226Z,11.55
2023-05-07T06:12:38.700Z,11.35
2023-05-07T06:15:06.011Z,11.35
2023-05-07T06:17:32.978Z,11.52
2023-05-07T06:19:59.721Z,11.73
2023-05-07T06:22:26.521Z,10.73
2023-05-07T06:24:53.130Z,11.70
2023-05-07T06:27:19.797Z,11.93
2023-05-07T06:29:49.038Z,12.13
2023-05-07T06:32:19.221Z,12.23
2023-05-07T06:34:46.894Z,12.15
2023-05-07T06:37:14.737Z,11.55
2023-05-07T06:40:03.677Z,11.27
2023-05-07T06:42:31.901Z,11.30
2023-05-07T06:45:06.533Z,12.35
2023-05-07T06:47:33.249Z,12.73
2023-05-07T06:49:59.893Z,13.05
2023-05-07T06:52:30.758Z,12.35
2023-05-07T06:54:57.711Z,13.27
2023-05-07T06:57:26.158Z,13.05
2023-05-07T06:59:52.979Z,11.65
2023-05-07T07:02:20.528Z,12.50
2023-05-07T07:04:49.447Z,11.80
2023-05-07T07:07:16.457Z,13.05
2023-05-07T07:09:46.008Z,11.82
2023-05-07T07:12:16.296Z,12.73
2023-05-07T07:14:43.550Z,11.68
2023-05-07T07:17:10.240Z,12.65
2023-05-07T07:19:37.046Z,12.40
2023-05-07T07:22:04.798Z,12.98
2023-05-07T07:24:32.703Z,12.85
2023-05-07T07:27:03.036Z,12.60
2023-05-07T07:29:31.072Z,11.45
2023-05-07T07:31:57.825Z,12.63
2023-05-07T07:34:26.915Z,11.82
2023-05-07T07:36:53.594Z,12.02
2023-05-07T07:39:20.678Z,12.57
2023-05-07T07:41:50.645Z,12.27
2023-05-07T07:44:19.441Z,12.43
2023-05-07T07:46:52.829Z,11.35
2023-05-07T07:49:23.601Z,12.35
2023-05-07T07:51:50.392Z,10.95
2023-05-07T07:54:17.663Z,11.30
2023-05-07T07:56:44.668Z,11.13
2023-05-07T07:59:14.729Z,11.48
2023-05-07T08:01:42.305Z,11.77
2023-05-07T08:04:10.068Z,11.88
2023-05-07T08:06:40.292Z,11.80
2023-05-07T08:09:09.426Z,12.40
2023-05-07T08:11:37.232Z,11.95
2023-05-07T08:14:04.474Z,11.93
2023-05-07T08:16:31.324Z,11.77
2023-05-07T08:18:59.527Z,12.15
2023-05-07T08:21:27.241Z,12.60
2023-05-07T08:23:54.395Z,12.23
2023-05-07T08:26:21.477Z,12.30
2023-05-07T08:28:49.307Z,11.20
2023-05-07T08:31:16.731Z,11.60
2023-05-07T08:33:45.562Z,11.30
2023-05-07T08:36:12.526Z,11.40
2023-05-07T08:38:41.754Z,11.35
2023-05-07T08:41:11.257Z,11.38
2023-05-07T08:43:41.944Z,11.18
2023-05-07T08:46:10.801Z,12.18
2023-05-07T08:48:40.768Z,11.70
2023-05-07T08:51:14.586Z,12.02
2023-05-07T08:53:42.449Z,11.57
2023-05-07T08:56:12.544Z,11.65
2023-05-07T08:58:40.044Z,11.45
2023-05-07T09:01:12.885Z,11.15
2023-05-07T09:03:40.720Z,11.20
2023-05-07T09:06:07.762Z,11.88
2023-05-07T09:08:36.753Z,11.30
2023-05-07T09:11:05.849Z,10.75
2023-05-07T09:13:32.552Z,10.82
2023-05-07T09:16:12.075Z,10.20
2023-05-07T09:18:44.346Z,10.20
2023-05-07T09:21:22.177Z,10.55
2023-05-07T09:23:54.793Z,10.10
2023-05-07T09:26:26.021Z,10.73
2023-05-07T09:28:53.017Z,10.70
2023-05-07T09:31:21.608Z,10.45
2023-05-07T09:33:49.458Z,11.00
2023-05-07T09:36:17.001Z,9.52
2023-05-07T09:38:44.829Z,10.65
2023-05-07T09:41:14.659Z,10.63
2023-05-07T09:43:55.363Z,9.05
2023-05-07T09:46:35.469Z,10.40
2023-05-07T09:49:11.253Z,9.77
2023-05-07T09:51:49.470Z,9.88
2023-05-07T09:54:17.731Z,10.40
2023-05-07T09:56:51.573Z,10.57
2023-05-07T09:59:20.173Z,9.30
2023-05-07T10:01:47.890Z,10.45
2023-05-07T10:04:15.209Z,11.13
2023-05-07T10:06:44.457Z,10.20
2023-05-07T10:09:12.081Z,9.10
2023-05-07T10:11:39.272Z,9.35
2023-05-07T10:14:09.356Z,9.90
2023-05-07T10:16:38.748Z,9.30
2023-05-07T10:19:13.430Z,9.13
2023-05-07T10:21:53.320Z,9.82
2023-05-07T10:24:27.568Z,8.52
2023-05-07T10:26:55.780Z,8.25
2023-05-07T10:29:36.364Z,8.02
2023-05-07T10:32:13.274Z,9.45
2023-05-07T10:34:54.910Z,9.38
2023-05-07T10:37:22.131Z,9.40
2023-05-07T10:39:49.005Z,10.55
2023-05-07T10:42:16.385Z,9.52
2023-05-07T10:44:49.249Z,9.43
2023-05-07T10:47:23.182Z,10.30
2023-05-07T10:50:12.970Z,10.43
2023-05-07T10:52:41.307Z,8.70
2023-05-07T10:55:16.055Z,9.50
2023-05-07T10:57:45.009Z,10.95
2023-05-07T11:03:07.841Z,10.13
2023-05-07T11:05:43.879Z,9.48
2023-05-07T11:08:19.658Z,9.52
2023-05-07T11:11:07.013Z,9.65
2023-05-07T11:13:51.489Z,9.90
2023-05-07T11:16:44.612Z,9.68
2023-05-07T11:19:56.047Z,9.38
2023-05-07T11:22:41.700Z,8.73
2023-05-07T11:25:28.934Z,8.48
2023-05-07T11:28:08.314Z,8.68
2023-05-07T11:30:57.091Z,7.95
2023-05-07T11:33:24.022Z,7.60
2023-05-07T11:35:56.686Z,9.02
2023-05-07T11:38:30.260Z,8.45
2023-05-07T11:41:02.788Z,8.35
2023-05-07T11:43:29.637Z,8.02
2023-05-07T11:45:56.446Z,8.00
2023-05-07T11:48:26.350Z,8.07
2023-05-07T11:50:55.825Z,6.68
2023-05-07T11:53:26.911Z,6.43
2023-05-07T11:55:54.691Z,6.55
2023-05-07T11:58:25.915Z,6.47
2023-05-07T12:00:56.474Z,6.25
2023-05-07T12:03:23.299Z,6.60
2023-05-07T12:05:50.126Z,6.80
2023-05-07T12:08:17.580Z,7.20
2023-05-07T12:10:50.677Z,7.80
2023-05-07T12:13:23.072Z,7.25
2023-05-07T12:16:08.649Z,6.70
2023-05-07T12:18:37.571Z,7.05
2023-05-07T12:21:06.231Z,5.90
2023-05-07T12:23:33.265Z,6.13
2023-05-07T12:26:00.574Z,5.95
2023-05-07T12:28:27.810Z,6.32
2023-05-07T12:30:54.708Z,5.32
2023-05-07T12:33:26.160Z,4.97
2023-05-07T12:35:54.574Z,4.15
2023-05-07T12:38:21.530Z,5.50
2023-05-07T12:40:52.681Z,5.60
2023-05-07T12:43:20.547Z,5.22
2023-05-07T12:45:52.419Z,5.90
2023-05-07T12:48:20.889Z,4.82
2023-05-07T12:50:52.106Z,4.80
2023-05-07T12:53:22.242Z,5.25
2023-05-07T12:55:50.966Z,5.75
2023-05-07T12:58:21.545Z,5.20
2023-05-07T13:00:52.600Z,5.18
2023-05-07T13:03:38.493Z,4.90
2023-05-07T13:06:16.177Z,4.90
2023-05-07T13:08:46.228Z,5.50
2023-05-07T13:11:14.426Z,5.40
2023-05-07T13:13:42.155Z,5.18
2023-05-07T13:16:10.584Z,4.72
2023-05-07T13:18:38.926Z,4.72
2023-05-07T13:21:05.898Z,4.85
2023-05-07T13:23:32.607Z,5.25
2023-05-07T13:26:00.136Z,4.97
2023-05-07T13:28:28.101Z,5.63
2023-05-07T13:30:55.740Z,5.38
2023-05-07T13:33:23.293Z,5.28
2023-05-07T13:35:50.000Z,5.90
2023-05-07T13:38:17.266Z,6.93
2023-05-07T13:40:44.037Z,5.28
2023-05-07T13:43:11.574Z,5.93
2023-05-07T13:45:38.546Z,6.03
2023-05-07T13:48:05.439Z,5.82
2023-05-07T13:50:32.148Z,4.85
2023-05-07T13:53:07.485Z,4.65
2023-05-07T13:55:35.883Z,5.40
2023-05-07T13:58:06.972Z,5.25
2023-05-07T14:00:34.592Z,4.95
2023-05-07T14:03:01.815Z,5.30
2023-05-07T14:05:32.045Z,5.57
2023-05-07T14:07:59.240Z,5.32
2023-05-07T14:10:26.848Z,5.28
2023-05-07T14:12:56.518Z,4.93
2023-05-07T14:15:24.751Z,5.28
2023-05-07T14:17:51.440Z,5.63
2023-05-07T14:20:18.127Z,5.22
2023-05-07T14:22:45.125Z,5.47
2023-05-07T14:25:12.154Z,5.13
2023-05-07T14:27:38.900Z,5.28
2023-05-07T14:30:06.381Z,4.75
2023-05-07T14:32:34.129Z,5.22
2023-05-07T14:35:00.906Z,5.10
2023-05-07T14:37:28.066Z,5.50
2023-05-07T14:39:54.802Z,5.43
2023-05-07T14:42:23.106Z,4.93
2023-05-07T14:44:50.149Z,4.72
2023-05-07T14:47:18.273Z,4.80
2023-05-07T14:49:46.990Z,4.97
2023-05-07T14:52:15.299Z,5.15
2023-05-07T14:54:42.004Z,4.88
2023-05-07T14:57:10.919Z,4.60
2023-05-07T14:59:40.448Z,5.88
2023-05-07T15:02:09.090Z,5.75
2023-05-07T15:04:38.015Z,5.80
2023-05-07T15:07:04.674Z,7.15
2023-05-07T15:09:31.454Z,5.97
2023-05-07T15:11:58.402Z,5.70
2023-05-07T15:14:27.491Z,4.82
2023-05-07T15:16:54.076Z,5.63
2023-05-07T15:19:21.151Z,5.38
2023-05-07T15:21:47.861Z,6.40
2023-05-07T15:24:14.517Z,5.55
2023-05-07T15:26:42.608Z,5.57
2023-05-07T15:29:11.073Z,5.22
2023-05-07T15:31:42.804Z,5.15
2023-05-07T15:34:09.636Z,4.57
2023-05-07T15:36:36.434Z,4.47
2023-05-07T15:39:04.472Z,4.15
2023-05-07T15:41:31.750Z,3.85
2023-05-07T15:43:58.474Z,3.83
2023-05-07T15:46:26.879Z,5.15
2023-05-07T15:48:54.402Z,3.78
2023-05-07T15:51:21.898Z,4.07
2023-05-07T15:53:49.317Z,4.07
2023-05-07T15:56:15.995Z,3.33
2023-05-07T15:58:42.699Z,4.13
2023-05-07T16:01:10.308Z,4.07
2023-05-07T16:03:38.906Z,4.63
2023-05-07T16:06:06.038Z,3.90
2023-05-07T16:08:34.259Z,4.03
2023-05-07T16:11:04.183Z,3.90
2023-05-07T16:13:31.273Z,3.63
2023-05-07T16:15:58.872Z,4.10
2023-05-07T16:18:25.879Z,3.65
2023-05-07T16:20:54.568Z,4.18
2023-05-07T16:23:22.304Z,3.45
2023-05-07T16:25:49.877Z,3.80
2023-05-07T16:28:16.867Z,3.60
2023-05-07T16:30:44.576Z,4.15
2023-05-07T16:33:16.196Z,3.45
2023-05-07T16:35:47.441Z,3.40
2023-05-07T16:38:14.347Z,3.63
2023-05-07T16:40:41.251Z,3.10
2023-05-07T16:43:08.109Z,3.67
2023-05-07T16:45:35.217Z,3.70
2023-05-07T16:48:04.349Z,3.20
2023-05-07T16:50:31.091Z,3.05
2023-05-07T16:52:59.215Z,2.70
2023-05-07T16:55:30.770Z,2.70
2023-05-07T16:57:57.672Z,2.90
2023-05-07T17:00:27.851Z,2.58
2023-05-07T17:02:58.717Z,2.45
2023-05-07T17:05:25.847Z,2.30
2023-05-07T17:07:52.547Z,2.30
2023-05-07T17:10:22.239Z,2.20
2023-05-07T17:12:49.079Z,2.55
2023-05-07T17:15:16.997Z,2.63
2023-05-07T17:17:47.872Z,2.47
2023-05-07T17:20:15.526Z,2.58
2023-05-07T17:22:42.316Z,2.58
2023-05-07T17:25:14.252Z,2.67
2023-05-07T17:27:44.831Z,2.45
2023-05-07T17:30:12.293Z,2.30
2023-05-07T17:32:43.920Z,2.53
2023-05-07T17:35:10.627Z,2.30
2023-05-07T17:37:37.299Z,2.60
2023-05-07T17:40:05.208Z,2.80
2023-05-07T17:42:32.739Z,2.30
2023-05-07T17:44:59.705Z,2.40
2023-05-07T17:47:26.441Z,2.50
2023-05-07T17:49:53.692Z,2.47
2023-05-07T17:52:21.386Z,2.47
2023-05-07T17:54:49.141Z,2.78
2023-05-07T17:57:16.500Z,2.88
2023-05-07T17:59:44.336Z,3.13
2023-05-07T18:02:11.046Z,3.28
2023-05-07T18:04:37.831Z,3.35
2023-05-07T18:07:04.879Z,3.05
2023-05-07T18:09:31.494Z,2.92
2023-05-07T18:11:58.123Z,3.40
2023-05-07T18:14:26.381Z,3.40
2023-05-07T18:16:54.227Z,3.17
2023-05-07T18:19:21.409Z,2.85
2023-05-07T18:21:48.334Z,3.50
2023-05-07T18:24:15.120Z,3.50
2023-05-07T18:26:44.667Z,3.78
2023-05-07T18:29:11.322Z,5.07
2023-05-07T18:31:38.281Z,5.70
2023-05-07T18:34:06.227Z,5.85
2023-05-07T18:36:33.143Z,5.97
2023-05-07T18:38:59.947Z,6.90
2023-05-07T18:41:26.773Z,7.13
2023-05-07T18:43:53.420Z,6.63
2023-05-07T18:46:20.331Z,7.05
2023-05-07T18:48:47.003Z,7.80
2023-05-07T18:51:16.595Z,7.85
2023-05-07T18:53:43.593Z,8.63
2023-05-07T18:56:10.433Z,7.82
2023-05-07T18:58:42.496Z,8.82
2023-05-07T19:01:10.994Z,8.70
2023-05-07T19:03:50.530Z,9.05
2023-05-07T19:06:17.367Z,9.30
2023-05-07T19:08:43.995Z,9.27
2023-05-07T19:11:11.134Z,9.48
2023-05-07T19:13:37.757Z,9.82
2023-05-07T19:16:05.700Z,9.18
2023-05-07T19:18:33.059Z,9.00
2023-05-07T19:20:59.861Z,9.45
2023-05-07T19:23:26.639Z,9.65
2023-05-07T19:25:53.425Z,9.93
2023-05-07T19:28:20.216Z,9.73
2023-05-07T19:30:49.596Z,9.13
2023-05-07T19:33:16.671Z,10.68
2023-05-07T19:35:43.356Z,11.00
2023-05-07T19:38:12.917Z,10.48
2023-05-07T19:40:39.597Z,11.02
2023-05-07T19:43:08.148Z,10.50
2023-05-07T19:48:23.574Z,10.88
2023-05-07T19:50:50.355Z,11.02
2023-05-07T19:53:17.620Z,11.07
2023-05-07T19:55:44.294Z,10.18
2023-05-07T19:58:11.290Z,10.55
2023-05-07T20:00:39.582Z,10.75
2023-05-07T20:03:06.912Z,10.70
2023-05-07T20:05:35.430Z,11.73
2023-05-07T20:08:02.600Z,10.90
2023-05-07T20:10:29.266Z,11.30
2023-05-07T20:12:56.829Z,11.85
2023-05-07T20:15:24.529Z,10.77
2023-05-07T20:17:51.258Z,11.63
2023-05-07T20:20:18.068Z,12.13
2023-05-07T20:22:44.798Z,11.98
2023-05-07T20:25:13.524Z,11.07
2023-05-07T20:27:40.897Z,11.70
2023-05-07T20:30:10.551Z,11.40
2023-05-07T20:32:37.767Z,11.23
2023-05-07T20:35:06.607Z,11.57
2023-05-07T20:37:36.634Z,11.32
2023-05-07T20:40:05.143Z,11.05
2023-05-07T20:42:31.839Z,11.57
2023-05-07T20:44:58.494Z,11.68
2023-05-07T20:47:25.159Z,11.48
2023-05-07T20:49:53.211Z,12.10
2023-05-07T20:52:21.313Z,11.98
2023-05-07T20:54:51.317Z,11.18
2023-05-07T20:57:19.439Z,12.15
2023-05-07T20:59:47.684Z,12.15
2023-05-07T21:02:14.704Z,12.15
2023-05-07T21:04:42.632Z,11.82
2023-05-07T21:07:10.350Z,11.48
2023-05-07T21:09:37.404Z,10.68
2023-05-07T21:12:11.849Z,11.45
2023-05-07T21:14:41.502Z,10.98
2023-05-07T21:17:08.655Z,11.27
2023-05-07T21:19:42.872Z,11.57
2023-05-07T21:22:09.582Z,10.77
2023-05-07T21:24:36.240Z,11.77
2023-05-07T21:27:02.977Z,11.02
2023-05-07T21:29:30.943Z,11.73
2023-05-07T21:31:57.710Z,12.30
2023-05-07T21:34:24.485Z,10.80
2023-05-07T21:36:51.093Z,11.25
2023-05-07T21:39:17.770Z,11.38
2023-05-07T21:41:44.424Z,11.30
2023-05-07T21:44:11.311Z,12.15
2023-05-07T21:46:38.043Z,11.13
2023-05-07T21:49:04.717Z,12.20
2023-05-07T21:51:34.373Z,12.38
2023-05-07T21:54:00.968Z,11.18
2023-05-07T21:56:27.640Z,11.70
2023-05-07T21:58:57.552Z,12.02
2023-05-07T22:01:24.319Z,11.77
2023-05-07T22:03:51.847Z,13.35
2023-05-07T22:06:21.716Z,11.90
2023-05-07T22:08:49.407Z,11.95
2023-05-07T22:11:16.060Z,13.18
2023-05-07T22:13:42.994Z,12.60
2023-05-07T22:16:10.367Z,13.18
2023-05-07T22:18:39.437Z,11.45
2023-05-07T22:21:06.388Z,11.68
2023-05-07T22:23:32.958Z,12.23
2023-05-07T22:26:00.808Z,13.00
2023-05-07T22:28:27.506Z,12.50
2023-05-07T22:30:54.219Z,11.70
2023-05-07T22:33:20.801Z,13.25
2023-05-07T22:35:47.400Z,12.38
2023-05-07T22:38:14.106Z,13.35
2023-05-07T22:40:42.953Z,12.95
2023-05-07T22:43:09.716Z,13.30
2023-05-07T22:45:36.533Z,12.25
2023-05-07T22:48:03.852Z,13.15
2023-05-07T22:50:30.768Z,12.43
2023-05-07T22:52:57.339Z,12.10
2023-05-07T22:55:24.177Z,12.18
2023-05-07T22:57:50.812Z,11.70
2023-05-07T23:00:17.428Z,11.77
2023-05-07T23:02:44.073Z,12.57
2023-05-07T23:05:10.728Z,12.10
2023-05-07T23:07:37.450Z,12.25
2023-05-07T23:10:04.907Z,11.85
2023-05-07T23:12:31.772Z,12.82
2023-05-07T23:14:58.382Z,12.30
2023-05-07T23:17:25.096Z,12.73
2023-05-07T23:19:51.886Z,12.00
2023-05-07T23:22:18.511Z,12.15
2023-05-07T23:24:45.178Z,12.50
2023-05-07T23:27:11.875Z,12.32
2023-05-07T23:29:55.376Z,11.85
2023-05-07T23:32:22.118Z,10.98
2023-05-07T23:34:53.102Z,11.13
2023-05-07T23:37:19.770Z,11.90
2023-05-07T23:39:46.409Z,10.95
2023-05-07T23:42:13.640Z,11.35
2023-05-07T23:44:40.228Z,12.10
2023-05-07T23:47:06.803Z,11.63
2023-05-07T23:49:33.441Z,12.18
2023-05-07T23:52:00.038Z,12.48
2023-05-07T23:54:26.660Z,11.55
2023-05-07T23:56:53.331Z,11.63
2023-05-07T23:59:20.067Z,11.93
